Terminal Aerodrome Forecast
Issued by NWS

Home | Current Version | Previous Version | Text Only | Print | Product List | Glossary On
Versions: 1 2 3 4 5 6 7 8 9 10 11 12 13 14 15 16 17 18 19 20 21 22 23 24 25 26
000
FTUS41 KBOX 210539
TAFFMH
TAF
KFMH 210539Z 2106/2206 14004KT P6SM OVC080
     FM211200 16009KT 3SM BR BKN080
     FM211500 16009KT 6SM BR BKN035
     FM211800 15008KT P6SM OVC030
     FM212000 11006KT P6SM OVC030
     FM212200 VRB03KT P6SM BKN020
     FM220100 00000KT 2SM BR BKN025
     FM220300 31004KT 1/2SM FG BKN090=

USA.gov is the U.S. government's official web portal to all federal, state and local government web resources and services.